Accueil
METAR-TAF:

METAR-TAF

Aéroports :

Bückeburg, Allemagne

latitude: 52-17N, longitude: 009-05E, altitude: 70 m

Observation

Le bulletin a été fait il y a 53 minutes, à 15:20 UTC
Vent 16 kt de ouest
Température 17°C
Humidité 55%
Pression 1007 hPa
Visibilité: 3300 m

METAR: ETHB 211520Z AUTO 27016KT 3300 // ////// 17/08 Q1007 ///

Heure: 18:13 (16:13 UTC)

Prévision

Le bulletin a été fait il y a 26 heures et 54 minutes, à 13:19 UTC
Prévision valable du 20 à 14 UTC au 20 à 23 UTC
Vent 15 kt de ouest/sud-ouest avec des rafales jusqu'à 22 kt
Visibilité 10 km ou plus
Nuages épars à une hauteur de 5000 ft
Nuages fragmentés à une hauteur de 35000 ft
Evoluant progressivement
du 20 à 17 UTC au 20 à 19 UTC
Vent 8 kt de sud/sud-ouest
Visibilité 10 km ou plus
Nuages épars à une hauteur de 5000 ft
Nuages fragmentés à une hauteur de 18000 ft

TAF: ETHB 201319Z 2014/2023 24015G22KT 9999 NSW SCT050 BKN350 BECMG 2017/2019 21008KT 9999 NSW SCT050 BKN180

Observations et prévisions météorologiques de plus de 4000 aéroports (messages METAR et TAF).

Les stations disponibles sont représentées par des disques jaunes et rouges sur la carte.

Passer la souris dessus pour voir le nom de la station.

Cliquer dessus pour voir les observations et prévisions météorologiques.

Pour changer de carte: cliquez sur les boutons verts avec une croix noire pour zoomer, sur le bouton vert avec un tiret pour effectuer un zoom arrière, ou sur les flèches vertes pour les cartes adjacentes.


METAR-TAF: